Time;durP1;ratioP1;P1;durP2;ratioP2;P2;SDS_P1;SDS_P2;PMS_P1;PMS_P2;Temp;Humidity;BMP_temperature;BMP_pressure;BME280_temperature;BME280_humidity;BME280_pressure;Samples;Min_cycle;Max_cycle;Signal;HPM_P1;HPM_P2
2022/06/20 00:01:30;;;;;;;5.80;3.20;;;;;;;12.22;100.00;100642.59;5026499;28;20430;-88
2022/06/20 00:04:03;;;;;;;7.78;3.35;;;;;;;12.25;100.00;100637.38;5026964;28;20423;-88
2022/06/20 00:06:38;;;;;;;8.00;3.50;;;;;;;12.44;100.00;100654.88;5028383;28;20430;-89
2022/06/20 00:09:06;;;;;;;6.35;3.17;;;;;;;12.13;100.00;100608.91;5026905;28;20429;-87
2022/06/20 00:11:40;;;;;;;6.68;3.13;;;;;;;12.40;100.00;100641.84;5027178;28;20768;-88
2022/06/20 00:14:13;;;;;;;7.18;3.40;;;;;;;12.15;100.00;100598.50;5026508;28;20905;-88
2022/06/20 00:16:46;;;;;;;6.70;3.38;;;;;;;12.45;100.00;100638.22;5027097;28;20431;-89
2022/06/20 00:19:20;;;;;;;6.70;3.30;;;;;;;12.43;100.00;100621.34;5026325;28;20918;-88
2022/06/20 00:21:53;;;;;;;6.03;3.10;;;;;;;12.40;100.00;100617.28;5026391;28;20434;-88
2022/06/20 00:24:21;;;;;;;7.53;3.43;;;;;;;12.30;100.00;100611.94;5026548;28;20434;-87
2022/06/20 00:26:51;;;;;;;7.47;3.40;;;;;;;12.35;100.00;100620.06;5029127;28;20411;-88
2022/06/20 00:29:24;;;;;;;5.57;3.20;;;;;;;12.32;100.00;100630.75;5030247;28;20435;-87
2022/06/20 00:31:52;;;;;;;6.45;3.40;;;;;;;12.41;100.00;100632.56;5037227;28;20406;-88
2022/06/20 00:34:25;;;;;;;7.57;3.50;;;;;;;12.39;100.00;100633.94;5030385;28;20520;-87
2022/06/20 00:36:59;;;;;;;7.68;3.45;;;;;;;12.44;100.00;100657.63;5030151;28;20415;-88
2022/06/20 00:39:27;;;;;;;6.47;3.40;;;;;;;12.41;100.00;100668.03;5030239;28;20783;-88
2022/06/20 00:42:03;;;;;;;6.13;3.40;;;;;;;12.22;100.00;100657.06;5031201;28;20430;-89
2022/06/20 00:44:35;;;;;;;7.43;3.55;;;;;;;12.29;100.00;100710.47;5030370;28;20426;-87
2022/06/20 00:47:13;;;;;;;7.22;3.45;;;;;;;11.95;100.00;100674.00;5030504;28;20431;-88
2022/06/20 00:49:47;;;;;;;7.82;3.67;;;;;;;12.33;100.00;100727.88;5030777;28;20442;-89
2022/06/20 00:52:23;;;;;;;6.80;3.60;;;;;;;12.26;100.00;100711.84;5030447;28;20906;-88
2022/06/20 00:55:02;;;;;;;7.03;3.65;;;;;;;12.36;100.00;100719.94;5024103;28;20438;-89
2022/06/20 00:57:41;;;;;;;8.25;3.60;;;;;;;12.24;100.00;100682.13;5025189;28;20457;-89
2022/06/20 01:00:18;;;;;;;7.15;3.28;;;;;;;12.49;100.00;100693.03;5029463;28;20415;-88
2022/06/20 01:02:56;;;;;;;7.32;3.60;;;;;;;12.41;100.00;100653.56;5029233;28;20435;-87
2022/06/20 01:05:28;;;;;;;7.03;3.40;;;;;;;12.45;100.00;100631.97;5028588;28;20430;-88
2022/06/20 01:08:01;;;;;;;6.57;3.53;;;;;;;12.46;100.00;100600.84;5029500;28;20426;-88
2022/06/20 01:10:42;;;;;;;6.40;3.50;;;;;;;12.27;100.00;100570.81;5029317;28;20423;-89
2022/06/20 01:13:20;;;;;;;6.68;3.50;;;;;;;12.36;100.00;100593.56;5029514;28;21285;-88
2022/06/20 01:15:56;;;;;;;8.35;3.65;;;;;;;12.42;100.00;100589.69;5032744;28;20427;-87
2022/06/20 01:18:27;;;;;;;8.07;3.40;;;;;;;12.23;100.00;100565.09;5025166;28;20593;-88
2022/06/20 01:21:03;;;;;;;8.73;3.60;;;;;;;12.38;100.00;100575.00;5029915;28;20524;-89
2022/06/20 01:23:42;;;;;;;7.18;3.75;;;;;;;12.36;100.00;100566.28;5029204;28;20426;-88
2022/06/20 01:26:40;;;;;;;7.03;3.60;;;;;;;12.30;100.00;100571.00;5031132;28;20423;-88
2022/06/20 01:29:16;;;;;;;7.75;4.07;;;;;;;12.37;100.00;100587.84;5029591;28;20431;-88
2022/06/20 01:31:52;;;;;;;6.47;3.50;;;;;;;12.39;100.00;100596.53;5030191;28;20415;-88
2022/06/20 01:34:26;;;;;;;6.72;3.38;;;;;;;12.41;100.00;100594.34;5028669;28;20431;-88
2022/06/20 01:39:49;;;;;;;8.25;3.75;;;;;;;12.41;100.00;100599.81;5030114;28;20431;-88
2022/06/20 01:42:23;;;;;;;7.13;3.20;;;;;;;12.36;100.00;100594.41;5030157;28;20427;-88
2022/06/20 01:45:02;;;;;;;5.65;3.20;;;;;;;12.38;100.00;100592.19;5029469;28;20423;-88
2022/06/20 01:47:32;;;;;;;6.07;3.15;;;;;;;12.27;100.00;100571.59;5028905;28;20431;-88
2022/06/20 01:50:03;;;;;;;9.73;3.63;;;;;;;12.49;100.00;100608.44;5029333;28;20422;-89
2022/06/20 01:52:36;;;;;;;8.20;3.17;;;;;;;12.31;100.00;100585.47;5029717;28;20423;-88
2022/06/20 01:55:08;;;;;;;7.90;3.15;;;;;;;12.31;100.00;100585.47;5029452;28;20431;-88
2022/06/20 01:57:41;;;;;;;7.30;3.10;;;;;;;12.47;100.00;100630.56;5028602;28;20430;-88
2022/06/20 02:00:20;;;;;;;5.78;3.03;;;;;;;12.48;100.00;100637.63;5028828;28;20423;-88
2022/06/20 02:02:51;;;;;;;8.90;3.08;;;;;;;12.14;100.00;100596.88;5030815;28;20427;-88
2022/06/20 02:05:22;;;;;;;8.07;2.95;;;;;;;12.37;100.00;100633.41;5029151;28;20422;-89
2022/06/20 02:07:51;;;;;;;6.40;2.80;;;;;;;12.29;100.00;100612.22;5030651;28;20398;-88
2022/06/20 02:10:38;;;;;;;6.30;2.80;;;;;;;12.29;100.00;100620.41;5029046;28;20842;-89
2022/06/20 02:13:07;;;;;;;7.47;3.05;;;;;;;12.34;100.00;100626.63;5028101;28;20934;-88
2022/06/20 02:15:43;;;;;;;8.32;3.60;;;;;;;12.21;100.00;100617.25;5028558;28;20430;-89
2022/06/20 02:18:12;;;;;;;7.40;2.85;;;;;;;12.32;100.00;100600.72;5029073;28;21244;-89
2022/06/20 02:20:50;;;;;;;8.32;3.20;;;;;;;12.32;100.00;100607.00;5027920;28;20438;-87
2022/06/20 02:23:28;;;;;;;8.43;3.22;;;;;;;12.29;100.00;100617.69;5027931;28;20426;-87
2022/06/20 02:25:57;;;;;;;7.13;3.00;;;;;;;12.22;100.00;100609.84;5028926;28;20415;-89
2022/06/20 02:28:36;;;;;;;7.03;3.30;;;;;;;12.12;100.00;100599.88;5028728;28;20764;-89
2022/06/20 02:31:11;;;;;;;7.10;3.28;;;;;;;12.20;100.00;100601.16;5028234;28;20788;-88
2022/06/20 02:33:39;;;;;;;8.13;3.22;;;;;;;12.21;100.00;100603.59;5028284;28;20428;-89
2022/06/20 02:36:14;;;;;;;6.40;3.03;;;;;;;12.22;100.00;100610.69;5028006;28;20431;-90
2022/06/20 02:38:43;;;;;;;6.47;2.92;;;;;;;12.15;100.00;100610.25;5028112;28;20907;-89
2022/06/20 02:41:13;;;;;;;7.17;3.03;;;;;;;12.13;100.00;100604.25;5026223;28;20783;-88
2022/06/20 02:43:50;;;;;;;6.00;3.05;;;;;;;12.19;100.00;100610.44;5029203;28;20442;-88
2022/06/20 02:46:28;;;;;;;7.63;3.08;;;;;;;12.21;100.00;100613.72;5027786;28;20873;-88
2022/06/20 02:49:04;;;;;;;9.40;3.28;;;;;;;12.17;100.00;100610.75;5027196;28;20434;-89
2022/06/20 02:51:39;;;;;;;7.60;2.88;;;;;;;12.21;100.00;100609.06;5028981;28;20411;-89
2022/06/20 02:54:12;;;;;;;7.75;3.10;;;;;;;12.25;100.00;100604.63;5028102;28;20426;-89
2022/06/20 02:56:48;;;;;;;8.47;3.10;;;;;;;12.15;100.00;100598.50;5027644;28;20449;-88
2022/06/20 02:59:25;;;;;;;7.77;3.03;;;;;;;12.17;100.00;100585.38;5027919;28;20442;-89
2022/06/20 03:02:04;;;;;;;7.07;2.90;;;;;;;12.20;100.00;100584.81;5027651;28;20427;-88
2022/06/20 03:04:42;;;;;;;8.00;2.92;;;;;;;11.86;100.00;100547.53;5027398;28;20427;-88
2022/06/20 03:07:18;;;;;;;5.85;3.05;;;;;;;12.06;100.00;100571.06;5027394;28;20430;-90
2022/06/20 03:09:56;;;;;;;7.10;2.70;;;;;;;12.22;100.00;100593.50;5027119;28;20423;-87
2022/06/20 03:12:29;;;;;;;6.43;2.40;;;;;;;12.17;100.00;100588.13;5023500;28;20469;-89
2022/06/20 03:15:02;;;;;;;9.47;2.50;;;;;;;12.13;100.00;100596.06;5007851;28;20420;-88
2022/06/20 03:17:37;;;;;;;6.68;2.50;;;;;;;12.08;100.00;100583.31;5012271;28;20426;-89
2022/06/20 03:20:13;;;;;;;8.30;2.42;;;;;;;12.11;100.00;100597.47;5026919;28;20423;-88
2022/06/20 03:22:51;;;;;;;7.00;2.55;;;;;;;12.13;100.00;100612.44;5028070;28;21292;-88
2022/06/20 03:25:20;;;;;;;6.13;2.50;;;;;;;12.15;100.00;100612.97;5028345;28;20406;-89
2022/06/20 03:27:51;;;;;;;7.30;2.50;;;;;;;12.16;100.00;100602.84;5026398;28;20422;-89
2022/06/20 03:30:28;;;;;;;6.68;2.42;;;;;;;12.02;100.00;100609.00;5034364;28;20419;-89
2022/06/20 03:33:06;;;;;;;5.70;2.42;;;;;;;12.02;100.00;100622.66;5026957;28;20444;-88
2022/06/20 03:35:43;;;;;;;11.00;2.67;;;;;;;12.03;100.00;100620.75;5027292;28;20411;-88
2022/06/20 03:38:17;;;;;;;8.50;2.77;;;;;;;11.80;100.00;100609.50;5026061;28;20432;-88
2022/06/20 03:40:50;;;;;;;7.60;2.60;;;;;;;11.93;100.00;100632.53;5026832;28;20784;-89
2022/06/20 03:43:22;;;;;;;7.72;2.80;;;;;;;11.95;100.00;100633.09;5026413;28;20953;-87
2022/06/20 03:45:58;;;;;;;7.15;2.83;;;;;;;11.88;100.00;100630.69;5028385;28;20427;-87
2022/06/20 03:48:38;;;;;;;7.03;2.65;;;;;;;11.78;100.00;100619.91;5033339;28;20433;-88
2022/06/20 03:51:16;;;;;;;6.43;2.72;;;;;;;11.82;100.00;100620.13;5048366;28;20414;-89
2022/06/20 03:53:50;;;;;;;6.03;2.92;;;;;;;11.86;100.00;100618.44;5032472;28;20441;-88
2022/06/20 03:56:28;;;;;;;6.07;3.10;;;;;;;11.89;100.00;100605.06;5026547;28;20418;-90
2022/06/20 03:59:08;;;;;;;7.22;3.03;;;;;;;11.99;100.00;100600.63;5028124;28;20422;-89
2022/06/20 04:01:44;;;;;;;7.85;2.92;;;;;;;12.05;100.00;100596.72;5030685;28;20430;-87
2022/06/20 04:04:21;;;;;;;6.18;2.97;;;;;;;12.11;100.00;100600.19;5031963;28;20425;-89
2022/06/20 04:06:58;;;;;;;7.78;2.90;;;;;;;12.16;100.00;100613.78;5030614;28;20458;-89
2022/06/20 04:12:36;;;;;;;6.75;2.90;;;;;;;12.15;100.00;100604.78;5034206;28;20812;-88
2022/06/20 04:15:15;;;;;;;6.28;2.72;;;;;;;12.23;100.00;100620.47;5034193;28;20432;-89
2022/06/20 04:20:48;;;;;;;6.53;2.67;;;;;;;12.21;100.00;100622.69;5045610;28;20903;-88
2022/06/20 04:23:27;;;;;;;7.20;2.80;;;;;;;12.07;100.00;100614.41;5031478;28;20422;-88
2022/06/20 04:26:08;;;;;;;7.22;2.78;;;;;;;12.10;100.00;100620.38;5029690;28;20426;-87
2022/06/20 04:28:49;;;;;;;8.07;2.78;;;;;;;11.99;100.00;100606.06;5029736;28;20426;-86
2022/06/20 04:31:31;;;;;;;8.07;3.05;;;;;;;12.12;100.00;100624.44;5037808;28;20445;-86
2022/06/20 04:34:14;;;;;;;7.25;3.00;;;;;;;12.12;100.00;100629.09;5029934;28;20970;-87
2022/06/20 04:36:50;;;;;;;7.10;2.50;;;;;;;12.08;100.00;100628.84;5046545;28;20438;-88
2022/06/20 04:39:28;;;;;;;9.20;2.70;;;;;;;12.02;100.00;100624.56;5030674;28;20502;-89
2022/06/20 04:42:08;;;;;;;6.90;2.78;;;;;;;12.03;100.00;100628.94;5029589;28;20430;-88
2022/06/20 04:44:46;;;;;;;6.95;3.00;;;;;;;12.03;100.00;100632.47;5046235;28;20462;-87
2022/06/20 04:47:27;;;;;;;7.85;2.58;;;;;;;11.96;100.00;100629.28;5044164;28;20428;-87
2022/06/20 04:49:55;;;;;;;6.05;2.50;;;;;;;12.02;100.00;100633.56;5033619;28;20407;-87
2022/06/20 04:52:31;;;;;;;7.78;2.60;;;;;;;12.07;100.00;100630.78;5026338;28;20430;-87
2022/06/20 04:55:05;;;;;;;8.43;2.70;;;;;;;12.15;100.00;100633.97;5028326;28;20419;-87
2022/06/20 04:57:38;;;;;;;8.00;2.37;;;;;;;12.04;100.00;100636.00;5028488;28;20427;-88
2022/06/20 05:00:18;;;;;;;6.80;2.22;;;;;;;12.10;100.00;100629.38;5022815;28;20438;-87
2022/06/20 05:02:54;;;;;;;8.68;2.65;;;;;;;12.12;100.00;100623.63;5027029;28;20439;-87
2022/06/20 05:05:31;;;;;;;5.95;2.05;;;;;;;12.20;100.00;100625.72;5026435;28;20437;-87
2022/06/20 05:08:12;;;;;;;8.45;2.50;;;;;;;12.28;100.00;100632.44;5035948;28;20452;-87
2022/06/20 05:10:46;;;;;;;7.82;2.50;;;;;;;12.40;100.00;100617.28;5045364;28;20458;-87
2022/06/20 05:13:20;;;;;;;5.03;2.15;;;;;;;13.23;100.00;100622.31;5028759;28;20427;-87
2022/06/20 05:15:54;;;;;;;5.25;2.10;;;;;;;14.93;100.00;100615.41;5028035;28;20434;-88
2022/06/20 05:18:27;;;;;;;8.68;2.30;;;;;;;15.52;100.00;100598.81;5029268;28;20433;-88
2022/06/20 05:21:06;;;;;;;6.70;2.10;;;;;;;16.98;100.00;100594.28;5022369;28;20434;-87
2022/06/20 05:23:43;;;;;;;6.23;1.93;;;;;;;17.14;100.00;100592.66;5023338;28;20423;-88
2022/06/20 05:26:20;;;;;;;8.77;2.45;;;;;;;17.29;100.00;100582.25;5023368;28;20431;-85
2022/06/20 05:28:56;;;;;;;6.68;1.80;;;;;;;18.00;100.00;100575.38;5028561;28;20444;-86
2022/06/20 05:31:34;;;;;;;5.57;1.70;;;;;;;16.13;100.00;100577.09;5039662;28;20468;-86
2022/06/20 05:34:16;;;;;;;4.30;1.60;;;;;;;15.43;100.00;100571.34;5021708;28;20431;-86
2022/06/20 05:36:56;;;;;;;6.38;1.75;;;;;;;15.70;100.00;100571.44;5017574;28;20435;-84
2022/06/20 05:39:33;;;;;;;5.13;1.80;;;;;;;16.10;100.00;100554.97;5022099;28;20434;-84
2022/06/20 05:42:11;;;;;;;5.43;1.65;;;;;;;16.44;100.00;100539.66;5020462;28;20438;-85
2022/06/20 05:44:39;;;;;;;7.10;1.73;;;;;;;16.62;100.00;100541.25;5022476;28;20439;-87
2022/06/20 05:47:17;;;;;;;7.10;1.80;;;;;;;16.70;100.00;100544.34;5024735;28;20435;-89
2022/06/20 05:49:50;;;;;;;4.32;1.42;;;;;;;16.20;100.00;100538.19;5022088;28;20443;-84
2022/06/20 05:52:27;;;;;;;5.45;1.60;;;;;;;15.42;100.00;100542.28;5026447;28;20435;-85
2022/06/20 05:55:10;;;;;;;5.55;1.60;;;;;;;15.01;100.00;100540.66;5024628;28;20431;-85
2022/06/20 05:57:42;;;;;;;4.72;1.70;;;;;;;14.94;100.00;100541.09;5024872;28;20969;-84
2022/06/20 06:00:19;;;;;;;4.65;1.52;;;;;;;14.57;100.00;100531.28;5021906;28;20442;-84
2022/06/20 06:02:57;;;;;;;4.95;1.77;;;;;;;14.34;100.00;100523.06;5023965;28;20473;-83
2022/06/20 06:05:31;;;;;;;5.20;1.50;;;;;;;14.59;100.00;100520.84;5023619;28;20449;-85
2022/06/20 06:08:14;;;;;;;7.35;1.90;;;;;;;15.04;100.00;100529.06;5024624;28;20436;-86
2022/06/20 06:10:54;;;;;;;5.13;1.73;;;;;;;15.42;100.00;100528.59;5023997;28;20761;-85
2022/06/20 06:13:27;;;;;;;5.28;1.60;;;;;;;15.12;100.00;100524.72;5021224;28;20434;-86
2022/06/20 06:18:53;;;;;;;6.28;1.70;;;;;;;15.07;100.00;100522.16;5040407;28;20435;-85
2022/06/20 06:21:28;;;;;;;4.50;1.30;;;;;;;15.33;100.00;100516.78;5024702;28;20431;-84
2022/06/20 06:23:58;;;;;;;5.60;1.38;;;;;;;15.37;100.00;100522.44;5023114;28;20427;-84
2022/06/20 06:26:35;;;;;;;6.18;1.30;;;;;;;15.13;100.00;100513.47;5020714;28;20438;-85
2022/06/20 06:29:05;;;;;;;6.15;1.50;;;;;;;15.27;100.00;100518.88;5021104;28;20431;-85
2022/06/20 06:31:46;;;;;;;5.53;1.20;;;;;;;15.42;100.00;100525.03;5034937;28;20427;-85
2022/06/20 06:34:23;;;;;;;5.53;1.20;;;;;;;15.55;100.00;100524.13;5022599;28;20438;-84
2022/06/20 06:37:02;;;;;;;5.53;1.23;;;;;;;15.58;100.00;100517.22;5023014;28;20431;-84
2022/06/20 06:39:50;;;;;;;6.63;1.45;;;;;;;15.74;100.00;100512.09;5025085;28;20433;-80
2022/06/20 06:42:25;;;;;;;5.57;1.40;;;;;;;15.17;100.00;100510.09;5021542;28;20424;-85
2022/06/20 06:45:00;;;;;;;6.82;1.85;;;;;;;15.23;100.00;100512.41;5018863;28;20434;-84
2022/06/20 06:47:39;;;;;;;7.13;1.25;;;;;;;15.32;100.00;100525.34;4998854;28;20434;-84
2022/06/20 06:50:24;;;;;;;5.43;1.20;;;;;;;15.39;100.00;100529.22;5012612;28;20439;-84
2022/06/20 06:53:04;;;;;;;5.60;1.50;;;;;;;15.76;100.00;100529.84;5007949;28;20438;-82
2022/06/20 06:55:42;;;;;;;6.60;1.40;;;;;;;15.66;100.00;100521.91;5003376;28;20423;-84
2022/06/20 06:58:21;;;;;;;7.55;1.50;;;;;;;15.79;100.00;100540.22;5008917;28;21110;-82
2022/06/20 07:01:01;;;;;;;6.15;1.23;;;;;;;16.03;100.00;100535.44;5003570;28;20430;-84
2022/06/20 07:03:34;;;;;;;6.72;1.30;;;;;;;16.27;100.00;100521.25;5007420;28;20430;-84
2022/06/20 07:06:16;;;;;;;5.28;1.13;;;;;;;16.57;100.00;100513.16;5002772;28;20438;-84
2022/06/20 07:08:55;;;;;;;7.27;1.40;;;;;;;15.94;100.00;100527.97;5007003;28;20430;-84
2022/06/20 07:11:33;;;;;;;5.90;1.13;;;;;;;15.20;100.00;100529.44;5003495;28;20431;-85
2022/06/20 07:14:18;;;;;;;5.43;1.45;;;;;;;15.38;100.00;100519.38;5006937;28;20887;-84
2022/06/20 07:16:57;;;;;;;4.50;1.20;;;;;;;15.80;100.00;100527.31;5004351;28;20417;-81
2022/06/20 07:19:31;;;;;;;4.57;1.13;;;;;;;15.88;100.00;100511.97;5005478;28;22144;-84
2022/06/20 07:22:00;;;;;;;4.97;1.15;;;;;;;15.61;100.00;100531.09;5004343;28;20410;-83
2022/06/20 07:24:37;;;;;;;5.53;1.23;;;;;;;15.79;100.00;100539.38;5006430;28;20481;-83
2022/06/20 07:27:12;;;;;;;6.30;1.52;;;;;;;15.76;100.00;100549.06;5000402;28;21137;-84
2022/06/20 07:29:52;;;;;;;5.25;1.40;;;;;;;16.01;100.00;100557.69;4996419;28;20431;-86
2022/06/20 07:32:26;;;;;;;6.90;1.40;;;;;;;15.76;100.00;100554.53;4996282;28;21089;-86
2022/06/20 07:35:06;;;;;;;5.50;1.27;;;;;;;15.26;100.00;100558.38;4995302;28;20438;-85
2022/06/20 07:37:38;;;;;;;4.43;1.15;;;;;;;15.30;100.00;100564.84;4997251;28;20856;-84
2022/06/20 07:40:19;;;;;;;5.50;1.30;;;;;;;15.18;100.00;100574.75;4998631;28;20419;-83
2022/06/20 07:42:57;;;;;;;5.40;1.13;;;;;;;15.05;100.00;100571.78;4997142;28;20530;-83
2022/06/20 07:45:38;;;;;;;6.13;1.20;;;;;;;14.96;100.00;100579.94;4997187;28;20585;-84
2022/06/20 07:48:11;;;;;;;4.80;1.20;;;;;;;14.77;100.00;100577.38;4976412;28;20481;-84
2022/06/20 07:50:49;;;;;;;3.05;1.02;;;;;;;14.80;100.00;100578.69;5002934;28;20773;-85
2022/06/20 07:53:26;;;;;;;5.20;1.20;;;;;;;14.86;100.00;100582.94;4999405;28;20422;-84
2022/06/20 07:56:04;;;;;;;5.10;1.13;;;;;;;14.83;100.00;100585.47;5009124;28;20530;-83
2022/06/20 07:58:41;;;;;;;5.00;1.27;;;;;;;14.71;100.00;100589.59;4998135;28;20446;-85
2022/06/20 08:01:23;;;;;;;5.38;1.20;;;;;;;14.72;100.00;100587.66;5001785;28;20433;-85
2022/06/20 08:04:00;;;;;;;4.80;1.30;;;;;;;14.76;100.00;100586.75;4996271;28;20835;-85
2022/06/20 08:06:38;;;;;;;3.60;1.33;;;;;;;14.72;100.00;100584.91;4994526;28;20443;-86
2022/06/20 08:09:12;;;;;;;2.42;1.15;;;;;;;14.88;100.00;100586.16;4996682;28;20888;-83
2022/06/20 08:11:49;;;;;;;5.60;1.20;;;;;;;15.05;100.00;100587.41;4996043;28;20838;-84
2022/06/20 08:14:24;;;;;;;5.10;1.20;;;;;;;14.94;100.00;100576.72;5006974;28;21751;-83
2022/06/20 08:17:01;;;;;;;4.45;1.08;;;;;;;14.96;100.00;100588.16;4990550;28;20415;-85
2022/06/20 08:19:35;;;;;;;3.72;1.08;;;;;;;14.87;100.00;100568.09;4992014;28;20963;-84
2022/06/20 08:22:08;;;;;;;5.57;1.23;;;;;;;15.04;100.00;100572.09;4998492;28;20434;-84
2022/06/20 08:24:42;;;;;;;3.58;1.40;;;;;;;15.06;100.00;100572.59;4995645;28;20422;-85
2022/06/20 08:27:14;;;;;;;3.90;1.10;;;;;;;15.03;100.00;100570.50;4993699;28;21010;-85
2022/06/20 08:29:48;;;;;;;3.97;1.10;;;;;;;14.94;100.00;100560.28;4991894;28;20939;-84
2022/06/20 08:32:29;;;;;;;5.72;1.40;;;;;;;15.01;100.00;100568.06;4995589;28;20431;-85
2022/06/20 08:35:15;;;;;;;3.05;1.20;;;;;;;15.33;100.00;100577.13;4996055;28;20953;-85
2022/06/20 08:37:54;;;;;;;3.88;1.10;;;;;;;15.56;100.00;100564.13;4994533;28;20435;-84
2022/06/20 08:40:59;;;;;;;4.13;1.40;;;;;;;16.01;100.00;100554.97;5000734;28;20426;-85
2022/06/20 08:44:09;;;;;;;3.90;1.25;;;;;;;16.03;100.00;100552.69;4989419;28;20434;-84
2022/06/20 08:47:11;;;;;;;3.88;1.17;;;;;;;16.33;100.00;100550.94;4992439;28;20432;-84
2022/06/20 08:50:09;;;;;;;4.50;1.40;;;;;;;16.63;100.00;100542.88;4969274;28;20860;-86
2022/06/20 08:53:04;;;;;;;5.05;1.30;;;;;;;16.61;100.00;100533.34;5000362;28;20434;-83
2022/06/20 08:55:44;;;;;;;3.83;1.02;;;;;;;16.65;100.00;100524.16;5004611;28;20418;-82
2022/06/20 08:58:32;;;;;;;1.63;0.90;;;;;;;16.67;100.00;100521.88;5013569;28;20437;-83
2022/06/20 09:01:14;;;;;;;2.47;0.98;;;;;;;16.97;100.00;100530.28;5006844;28;20423;-82
2022/06/20 09:04:01;;;;;;;2.10;1.00;;;;;;;16.84;100.00;100539.47;5007816;28;20892;-83
2022/06/20 09:07:10;;;;;;;2.60;0.90;;;;;;;17.12;100.00;100528.94;5004383;28;20435;-83
2022/06/20 09:09:57;;;;;;;2.97;0.90;;;;;;;17.34;100.00;100538.09;4998211;28;20435;-83
2022/06/20 09:12:48;;;;;;;1.98;0.90;;;;;;;17.08;100.00;100529.91;5014317;28;21068;-86
2022/06/20 09:15:35;;;;;;;1.60;0.82;;;;;;;16.81;100.00;100534.63;5009388;28;20426;-85
2022/06/20 09:18:19;;;;;;;2.28;1.00;;;;;;;16.70;100.00;100536.91;5005925;28;20423;-82
2022/06/20 09:21:03;;;;;;;2.90;0.98;;;;;;;16.85;100.00;100527.34;4997110;28;20427;-85
2022/06/20 09:23:52;;;;;;;2.90;0.90;;;;;;;16.71;100.00;100541.28;4996049;28;20431;-83
2022/06/20 09:26:33;;;;;;;2.80;1.02;;;;;;;16.26;100.00;100536.09;5007292;28;20427;-84
2022/06/20 09:29:22;;;;;;;2.88;0.98;;;;;;;15.97;100.00;100554.78;5005221;28;20439;-85
2022/06/20 09:32:32;;;;;;;3.47;1.10;;;;;;;15.87;100.00;100557.00;5003922;28;20991;-83
2022/06/20 09:35:23;;;;;;;4.20;1.15;;;;;;;15.55;100.00;100564.44;4969422;28;21012;-83
2022/06/20 09:38:29;;;;;;;3.70;1.15;;;;;;;15.71;100.00;100570.34;5001466;28;20430;-82
2022/06/20 09:41:13;;;;;;;2.20;0.90;;;;;;;15.51;100.00;100569.78;5007628;28;20863;-84
2022/06/20 09:43:50;;;;;;;2.17;1.00;;;;;;;15.23;100.00;100571.88;5002398;28;20427;-83
2022/06/20 09:46:31;;;;;;;1.65;0.90;;;;;;;15.39;100.00;100570.34;4993985;28;21801;-84
2022/06/20 09:49:19;;;;;;;1.83;1.00;;;;;;;15.93;100.00;100566.72;4973212;28;20817;-84
2022/06/20 09:52:04;;;;;;;2.17;1.00;;;;;;;16.59;100.00;100552.13;5002527;28;20434;-85
2022/06/20 09:54:46;;;;;;;1.20;0.90;;;;;;;16.65;100.00;100553.56;5007211;28;20433;-83
2022/06/20 09:57:31;;;;;;;2.50;0.93;;;;;;;16.58;100.00;100555.97;5012469;28;21280;-85
2022/06/20 10:00:10;;;;;;;3.30;1.05;;;;;;;16.56;100.00;100564.56;5003359;28;20422;-86
2022/06/20 10:02:52;;;;;;;3.35;1.10;;;;;;;16.69;100.00;100565.50;5011935;28;20426;-84
2022/06/20 10:05:39;;;;;;;3.05;0.90;;;;;;;16.17;100.00;100574.50;5008454;28;20427;-84
2022/06/20 10:08:24;;;;;;;3.35;1.00;;;;;;;15.98;100.00;100570.13;5016167;28;20430;-86
2022/06/20 10:11:05;;;;;;;2.47;1.10;;;;;;;15.84;100.00;100563.97;5010523;28;22107;-85
2022/06/20 10:13:41;;;;;;;3.33;1.17;;;;;;;16.06;100.00;100559.47;5007482;28;20419;-84
2022/06/20 10:16:22;;;;;;;2.15;0.98;;;;;;;16.04;100.00;100559.00;5000358;28;20470;-86
2022/06/20 10:18:59;;;;;;;2.10;0.90;;;;;;;15.71;100.00;100548.38;4997344;28;20423;-83
2022/06/20 10:21:42;;;;;;;2.72;1.00;;;;;;;16.54;100.00;100553.06;4999766;28;20427;-83
2022/06/20 10:24:55;;;;;;;2.10;1.00;;;;;;;16.78;100.00;100540.78;5006640;28;20445;-84
2022/06/20 10:27:45;;;;;;;2.05;0.90;;;;;;;17.12;100.00;100550.13;4995099;28;20430;-83
2022/06/20 10:30:26;;;;;;;2.47;1.10;;;;;;;17.10;100.00;100538.66;5005671;28;20431;-82
2022/06/20 10:33:08;;;;;;;3.08;1.27;;;;;;;17.49;100.00;100545.00;5001417;28;20930;-86
2022/06/20 10:35:44;;;;;;;3.03;1.10;;;;;;;17.38;100.00;100543.75;5010591;28;20873;-84
2022/06/20 10:38:33;;;;;;;3.15;1.20;;;;;;;17.65;100.00;100540.53;5006965;28;20423;-84
2022/06/20 10:41:08;;;;;;;3.58;1.10;;;;;;;17.52;100.00;100552.56;4998316;28;20946;-83
2022/06/20 10:43:48;;;;;;;3.17;1.30;;;;;;;17.84;100.00;100536.56;4997749;28;20769;-86
2022/06/20 10:46:31;;;;;;;3.10;1.25;;;;;;;17.43;100.00;100551.81;4994038;28;20434;-84
2022/06/20 10:49:19;;;;;;;2.05;1.10;;;;;;;16.83;100.00;100535.94;4966589;28;20435;-83
2022/06/20 10:52:09;;;;;;;2.72;1.30;;;;;;;16.64;100.00;100529.94;5001672;28;20426;-85
2022/06/20 10:54:57;;;;;;;2.27;1.10;;;;;;;16.75;100.00;100546.91;4999772;28;20415;-85
2022/06/20 10:57:44;;;;;;;3.92;1.20;;;;;;;16.55;100.00;100549.19;5001542;28;20426;-85
2022/06/20 11:00:15;;;;;;;4.18;1.10;;;;;;;16.30;100.00;100545.31;5000343;28;20434;-88
2022/06/20 11:03:10;;;;;;;2.33;1.10;;;;;;;16.67;100.00;100543.84;5004850;28;20930;-85
2022/06/20 11:05:50;;;;;;;2.37;1.13;;;;;;;17.60;100.00;100545.44;4993890;28;20481;-83
2022/06/20 11:08:31;;;;;;;3.20;1.10;;;;;;;17.73;100.00;100544.41;4995237;28;21400;-82
2022/06/20 11:11:23;;;;;;;4.00;1.20;;;;;;;17.22;100.00;100540.72;4993414;28;20884;-85
2022/06/20 11:13:58;;;;;;;2.47;1.40;;;;;;;17.44;100.00;100550.66;4997107;28;20422;-84
2022/06/20 11:16:34;;;;;;;3.43;1.30;;;;;;;17.12;100.00;100536.38;5007450;28;20426;-82
2022/06/20 11:19:21;;;;;;;2.90;1.27;;;;;;;17.16;100.00;100529.88;4993631;28;20446;-85
2022/06/20 11:22:19;;;;;;;5.47;1.33;;;;;;;17.74;100.00;100526.72;4992909;28;20922;-84
2022/06/20 11:24:56;;;;;;;4.43;1.40;;;;;;;17.61;100.00;100545.09;4999494;28;20437;-86
2022/06/20 11:28:10;;;;;;;3.63;1.30;;;;;;;17.28;92.60;100542.97;4990407;28;20435;-82
2022/06/20 11:30:50;;;;;;;3.40;1.30;;;;;;;17.17;99.84;100542.50;4959161;28;20498;-83
2022/06/20 11:36:33;;;;;;;5.80;1.50;;;;;;;17.93;95.00;100526.31;4994487;28;20423;-86
2022/06/20 11:39:27;;;;;;;4.43;1.40;;;;;;;18.60;98.17;100523.72;4996032;28;20415;-85
2022/06/20 11:42:17;;;;;;;3.17;1.27;;;;;;;18.89;91.70;100510.97;4996664;28;20850;-82
2022/06/20 11:45:04;;;;;;;4.60;1.13;;;;;;;19.02;82.22;100517.34;4997942;28;20423;-84
2022/06/20 11:48:06;;;;;;;2.58;1.15;;;;;;;19.08;79.67;100515.97;5001080;28;20418;-83
2022/06/20 11:50:45;;;;;;;2.13;1.10;;;;;;;18.43;73.35;100519.16;4998942;28;21128;-83
2022/06/20 11:53:35;;;;;;;3.35;1.25;;;;;;;18.02;79.12;100523.50;4996008;28;20811;-84
2022/06/20 11:56:19;;;;;;;3.58;1.50;;;;;;;18.34;81.06;100522.00;5003293;28;20760;-83
2022/06/20 11:59:00;;;;;;;3.25;1.42;;;;;;;18.69;74.06;100513.41;5002193;28;20850;-83
2022/06/20 12:01:41;;;;;;;2.83;1.20;;;;;;;18.00;79.03;100534.88;4999163;28;20445;-82
2022/06/20 12:04:20;;;;;;;5.43;1.50;;;;;;;17.74;87.40;100528.69;4999731;28;20417;-85
2022/06/20 12:06:54;;;;;;;3.78;1.58;;;;;;;18.40;93.29;100522.59;5005929;28;20426;-82
2022/06/20 12:09:33;;;;;;;3.15;1.20;;;;;;;18.50;91.87;100533.19;4991634;28;20438;-82
2022/06/20 12:12:18;;;;;;;3.70;1.27;;;;;;;18.20;86.50;100532.47;5007815;28;20431;-85
2022/06/20 12:15:07;;;;;;;4.13;1.38;;;;;;;17.81;88.91;100539.97;4992131;28;21187;-84
2022/06/20 12:17:45;;;;;;;3.80;1.30;;;;;;;18.12;88.18;100536.09;4998689;28;20407;-85
2022/06/20 12:23:28;;;;;;;4.25;1.40;;;;;;;18.81;74.21;100493.34;4996636;28;20437;-85
2022/06/20 12:26:05;;;;;;;3.40;1.20;;;;;;;19.14;70.50;100509.09;5006539;28;20470;-82
2022/06/20 12:28:36;;;;;;;3.00;1.20;;;;;;;19.83;78.02;100509.38;5003080;28;20438;-82